sensor_id;sensor_type;location;lat;lon;timestamp;P1;durP1;ratioP1;P2;durP2;ratioP2
2624;SDS011;1322;53.256;10.386;2023-05-14T00:01:44;6.77;;;5.53;;
2624;SDS011;1322;53.256;10.386;2023-05-14T00:04:10;6.50;;;4.60;;
2624;SDS011;1322;53.256;10.386;2023-05-14T00:06:36;7.80;;;5.77;;
2624;SDS011;1322;53.256;10.386;2023-05-14T00:09:02;8.00;;;5.77;;
2624;SDS011;1322;53.256;10.386;2023-05-14T00:11:28;5.90;;;5.30;;
2624;SDS011;1322;53.256;10.386;2023-05-14T00:13:54;6.50;;;5.37;;
2624;SDS011;1322;53.256;10.386;2023-05-14T00:16:20;6.63;;;5.63;;
2624;SDS011;1322;53.256;10.386;2023-05-14T00:18:46;6.23;;;5.63;;
2624;SDS011;1322;53.256;10.386;2023-05-14T00:21:12;7.50;;;5.47;;
2624;SDS011;1322;53.256;10.386;2023-05-14T00:23:38;6.53;;;5.63;;
2624;SDS011;1322;53.256;10.386;2023-05-14T00:26:04;5.90;;;5.27;;
2624;SDS011;1322;53.256;10.386;2023-05-14T00:28:30;7.47;;;5.10;;
2624;SDS011;1322;53.256;10.386;2023-05-14T00:30:56;6.30;;;5.63;;
2624;SDS011;1322;53.256;10.386;2023-05-14T00:33:22;7.20;;;5.10;;
2624;SDS011;1322;53.256;10.386;2023-05-14T00:35:48;5.07;;;4.53;;
2624;SDS011;1322;53.256;10.386;2023-05-14T00:38:15;6.43;;;5.80;;
2624;SDS011;1322;53.256;10.386;2023-05-14T00:40:43;6.00;;;5.00;;
2624;SDS011;1322;53.256;10.386;2023-05-14T00:43:13;7.40;;;4.77;;
2624;SDS011;1322;53.256;10.386;2023-05-14T00:45:40;14.93;;;5.73;;
2624;SDS011;1322;53.256;10.386;2023-05-14T00:48:06;11.60;;;7.10;;
2624;SDS011;1322;53.256;10.386;2023-05-14T00:50:32;8.30;;;5.97;;
2624;SDS011;1322;53.256;10.386;2023-05-14T00:52:58;8.50;;;6.50;;
2624;SDS011;1322;53.256;10.386;2023-05-14T00:55:24;7.93;;;5.90;;
2624;SDS011;1322;53.256;10.386;2023-05-14T00:57:51;8.30;;;5.90;;
2624;SDS011;1322;53.256;10.386;2023-05-14T01:00:18;6.43;;;5.83;;
2624;SDS011;1322;53.256;10.386;2023-05-14T01:02:44;10.23;;;5.70;;
2624;SDS011;1322;53.256;10.386;2023-05-14T01:05:10;6.90;;;5.73;;
2624;SDS011;1322;53.256;10.386;2023-05-14T01:07:47;7.03;;;6.33;;
2624;SDS011;1322;53.256;10.386;2023-05-14T01:10:26;9.10;;;5.30;;
2624;SDS011;1322;53.256;10.386;2023-05-14T01:13:04;5.70;;;5.10;;
2624;SDS011;1322;53.256;10.386;2023-05-14T01:15:32;6.60;;;6.00;;
2624;SDS011;1322;53.256;10.386;2023-05-14T01:18:03;10.10;;;6.20;;
2624;SDS011;1322;53.256;10.386;2023-05-14T01:20:31;5.73;;;5.23;;
2624;SDS011;1322;53.256;10.386;2023-05-14T01:22:57;9.03;;;5.30;;
2624;SDS011;1322;53.256;10.386;2023-05-14T01:25:24;7.00;;;5.07;;
2624;SDS011;1322;53.256;10.386;2023-05-14T01:32:52;6.60;;;5.90;;
2624;SDS011;1322;53.256;10.386;2023-05-14T01:35:21;6.70;;;5.40;;
2624;SDS011;1322;53.256;10.386;2023-05-14T01:37:48;7.00;;;5.73;;
2624;SDS011;1322;53.256;10.386;2023-05-14T01:40:14;7.63;;;5.20;;
2624;SDS011;1322;53.256;10.386;2023-05-14T01:42:40;5.80;;;4.97;;
2624;SDS011;1322;53.256;10.386;2023-05-14T01:45:07;7.33;;;5.30;;
2624;SDS011;1322;53.256;10.386;2023-05-14T01:47:33;7.93;;;6.40;;
2624;SDS011;1322;53.256;10.386;2023-05-14T01:49:59;5.90;;;5.33;;
2624;SDS011;1322;53.256;10.386;2023-05-14T01:52:25;6.20;;;5.57;;
2624;SDS011;1322;53.256;10.386;2023-05-14T01:54:51;7.60;;;5.67;;
2624;SDS011;1322;53.256;10.386;2023-05-14T01:57:17;8.93;;;5.33;;
2624;SDS011;1322;53.256;10.386;2023-05-14T01:59:43;6.53;;;5.50;;
2624;SDS011;1322;53.256;10.386;2023-05-14T02:02:09;7.60;;;5.30;;
2624;SDS011;1322;53.256;10.386;2023-05-14T02:04:35;8.33;;;5.63;;
2624;SDS011;1322;53.256;10.386;2023-05-14T02:07:01;10.30;;;6.40;;
2624;SDS011;1322;53.256;10.386;2023-05-14T02:09:27;7.40;;;5.57;;
2624;SDS011;1322;53.256;10.386;2023-05-14T02:11:54;9.63;;;5.80;;
2624;SDS011;1322;53.256;10.386;2023-05-14T02:14:20;5.50;;;5.00;;
2624;SDS011;1322;53.256;10.386;2023-05-14T02:16:46;11.83;;;5.50;;
2624;SDS011;1322;53.256;10.386;2023-05-14T02:19:12;5.97;;;5.47;;
2624;SDS011;1322;53.256;10.386;2023-05-14T02:21:38;6.40;;;5.80;;
2624;SDS011;1322;53.256;10.386;2023-05-14T02:24:04;7.90;;;5.43;;
2624;SDS011;1322;53.256;10.386;2023-05-14T02:26:30;6.43;;;5.73;;
2624;SDS011;1322;53.256;10.386;2023-05-14T02:28:56;6.50;;;5.90;;
2624;SDS011;1322;53.256;10.386;2023-05-14T02:31:22;7.60;;;6.77;;
2624;SDS011;1322;53.256;10.386;2023-05-14T02:33:51;6.23;;;5.57;;
2624;SDS011;1322;53.256;10.386;2023-05-14T02:36:17;12.97;;;6.60;;
2624;SDS011;1322;53.256;10.386;2023-05-14T02:38:43;6.83;;;6.07;;
2624;SDS011;1322;53.256;10.386;2023-05-14T02:41:09;8.43;;;6.47;;
2624;SDS011;1322;53.256;10.386;2023-05-14T02:43:35;9.23;;;6.53;;
2624;SDS011;1322;53.256;10.386;2023-05-14T02:46:01;6.73;;;5.80;;
2624;SDS011;1322;53.256;10.386;2023-05-14T02:48:27;7.50;;;6.37;;
2624;SDS011;1322;53.256;10.386;2023-05-14T02:50:54;7.33;;;6.63;;
2624;SDS011;1322;53.256;10.386;2023-05-14T02:53:20;7.70;;;6.00;;
2624;SDS011;1322;53.256;10.386;2023-05-14T02:55:46;10.07;;;6.00;;
2624;SDS011;1322;53.256;10.386;2023-05-14T02:58:12;7.00;;;6.30;;
2624;SDS011;1322;53.256;10.386;2023-05-14T03:00:38;7.20;;;6.50;;
2624;SDS011;1322;53.256;10.386;2023-05-14T03:03:04;7.13;;;6.40;;
2624;SDS011;1322;53.256;10.386;2023-05-14T03:05:30;10.37;;;7.90;;
2624;SDS011;1322;53.256;10.386;2023-05-14T03:07:57;10.13;;;7.27;;
2624;SDS011;1322;53.256;10.386;2023-05-14T03:10:23;8.37;;;7.43;;
2624;SDS011;1322;53.256;10.386;2023-05-14T03:12:49;8.73;;;7.80;;
2624;SDS011;1322;53.256;10.386;2023-05-14T03:15:15;8.23;;;7.40;;
2624;SDS011;1322;53.256;10.386;2023-05-14T03:17:41;9.17;;;7.37;;
2624;SDS011;1322;53.256;10.386;2023-05-14T03:20:07;7.80;;;5.87;;
2624;SDS011;1322;53.256;10.386;2023-05-14T03:22:33;8.57;;;6.43;;
2624;SDS011;1322;53.256;10.386;2023-05-14T03:24:59;8.27;;;6.67;;
2624;SDS011;1322;53.256;10.386;2023-05-14T03:27:25;10.90;;;6.80;;
2624;SDS011;1322;53.256;10.386;2023-05-14T03:29:51;7.53;;;6.67;;
2624;SDS011;1322;53.256;10.386;2023-05-14T03:32:17;7.70;;;6.73;;
2624;SDS011;1322;53.256;10.386;2023-05-14T03:34:43;6.83;;;6.13;;
2624;SDS011;1322;53.256;10.386;2023-05-14T03:37:09;15.63;;;6.27;;
2624;SDS011;1322;53.256;10.386;2023-05-14T03:39:36;8.60;;;7.30;;
2624;SDS011;1322;53.256;10.386;2023-05-14T03:42:02;9.23;;;6.40;;
2624;SDS011;1322;53.256;10.386;2023-05-14T03:44:28;7.70;;;7.00;;
2624;SDS011;1322;53.256;10.386;2023-05-14T03:46:54;8.50;;;7.70;;
2624;SDS011;1322;53.256;10.386;2023-05-14T03:49:20;6.90;;;6.30;;
2624;SDS011;1322;53.256;10.386;2023-05-14T03:51:46;7.60;;;6.80;;
2624;SDS011;1322;53.256;10.386;2023-05-14T03:54:12;9.27;;;6.00;;
2624;SDS011;1322;53.256;10.386;2023-05-14T03:56:38;8.70;;;6.90;;
2624;SDS011;1322;53.256;10.386;2023-05-14T03:59:04;8.07;;;7.27;;
2624;SDS011;1322;53.256;10.386;2023-05-14T04:01:30;7.73;;;6.97;;
2624;SDS011;1322;53.256;10.386;2023-05-14T04:03:56;6.77;;;6.10;;
2624;SDS011;1322;53.256;10.386;2023-05-14T04:06:22;6.20;;;5.60;;
2624;SDS011;1322;53.256;10.386;2023-05-14T04:08:48;7.47;;;6.77;;
2624;SDS011;1322;53.256;10.386;2023-05-14T04:11:14;6.43;;;5.77;;
2624;SDS011;1322;53.256;10.386;2023-05-14T04:13:40;6.97;;;5.80;;
2624;SDS011;1322;53.256;10.386;2023-05-14T04:16:06;6.27;;;5.67;;
2624;SDS011;1322;53.256;10.386;2023-05-14T04:18:32;6.10;;;5.53;;
2624;SDS011;1322;53.256;10.386;2023-05-14T04:21:01;8.03;;;6.90;;
2624;SDS011;1322;53.256;10.386;2023-05-14T04:23:27;8.07;;;7.10;;
2624;SDS011;1322;53.256;10.386;2023-05-14T04:25:55;7.33;;;6.50;;
2624;SDS011;1322;53.256;10.386;2023-05-14T04:28:21;6.47;;;5.97;;
2624;SDS011;1322;53.256;10.386;2023-05-14T04:30:47;7.50;;;6.80;;
2624;SDS011;1322;53.256;10.386;2023-05-14T04:33:13;6.90;;;6.20;;
2624;SDS011;1322;53.256;10.386;2023-05-14T04:35:39;9.53;;;6.33;;
2624;SDS011;1322;53.256;10.386;2023-05-14T04:38:05;6.20;;;5.57;;
2624;SDS011;1322;53.256;10.386;2023-05-14T04:40:32;7.13;;;6.53;;
2624;SDS011;1322;53.256;10.386;2023-05-14T04:42:58;7.47;;;5.93;;
2624;SDS011;1322;53.256;10.386;2023-05-14T04:45:24;7.50;;;6.10;;
2624;SDS011;1322;53.256;10.386;2023-05-14T04:47:50;9.73;;;6.53;;
2624;SDS011;1322;53.256;10.386;2023-05-14T04:50:16;12.00;;;8.23;;
2624;SDS011;1322;53.256;10.386;2023-05-14T04:52:42;7.20;;;6.40;;
2624;SDS011;1322;53.256;10.386;2023-05-14T04:55:08;8.30;;;6.07;;
2624;SDS011;1322;53.256;10.386;2023-05-14T04:57:34;6.40;;;5.80;;
2624;SDS011;1322;53.256;10.386;2023-05-14T05:00:00;8.33;;;5.93;;
2624;SDS011;1322;53.256;10.386;2023-05-14T05:02:29;7.23;;;6.60;;
2624;SDS011;1322;53.256;10.386;2023-05-14T05:04:55;6.63;;;6.03;;
2624;SDS011;1322;53.256;10.386;2023-05-14T05:07:22;7.40;;;6.67;;
2624;SDS011;1322;53.256;10.386;2023-05-14T05:09:47;11.17;;;6.60;;
2624;SDS011;1322;53.256;10.386;2023-05-14T05:12:13;7.87;;;5.70;;
2624;SDS011;1322;53.256;10.386;2023-05-14T05:14:39;8.27;;;6.30;;
2624;SDS011;1322;53.256;10.386;2023-05-14T05:17:05;8.00;;;6.40;;
2624;SDS011;1322;53.256;10.386;2023-05-14T05:19:31;7.07;;;6.20;;
2624;SDS011;1322;53.256;10.386;2023-05-14T05:21:57;7.83;;;6.93;;
2624;SDS011;1322;53.256;10.386;2023-05-14T05:24:24;7.30;;;6.30;;
2624;SDS011;1322;53.256;10.386;2023-05-14T05:26:49;8.60;;;6.77;;
2624;SDS011;1322;53.256;10.386;2023-05-14T05:29:17;7.10;;;6.40;;
2624;SDS011;1322;53.256;10.386;2023-05-14T05:31:43;7.03;;;6.33;;
2624;SDS011;1322;53.256;10.386;2023-05-14T05:34:10;7.60;;;6.70;;
2624;SDS011;1322;53.256;10.386;2023-05-14T05:36:36;6.60;;;6.00;;
2624;SDS011;1322;53.256;10.386;2023-05-14T05:39:02;9.00;;;6.03;;
2624;SDS011;1322;53.256;10.386;2023-05-14T05:41:28;7.60;;;5.80;;
2624;SDS011;1322;53.256;10.386;2023-05-14T05:43:54;6.40;;;5.80;;
2624;SDS011;1322;53.256;10.386;2023-05-14T05:46:20;6.17;;;5.57;;
2624;SDS011;1322;53.256;10.386;2023-05-14T05:48:46;6.70;;;5.87;;
2624;SDS011;1322;53.256;10.386;2023-05-14T05:51:12;6.60;;;5.90;;
2624;SDS011;1322;53.256;10.386;2023-05-14T05:53:38;6.13;;;5.50;;
2624;SDS011;1322;53.256;10.386;2023-05-14T05:56:04;7.23;;;6.53;;
2624;SDS011;1322;53.256;10.386;2023-05-14T05:58:31;6.80;;;6.13;;
2624;SDS011;1322;53.256;10.386;2023-05-14T06:00:57;6.30;;;5.70;;
2624;SDS011;1322;53.256;10.386;2023-05-14T06:03:23;8.20;;;6.67;;
2624;SDS011;1322;53.256;10.386;2023-05-14T06:05:49;7.70;;;7.00;;
2624;SDS011;1322;53.256;10.386;2023-05-14T06:08:16;8.40;;;6.90;;
2624;SDS011;1322;53.256;10.386;2023-05-14T06:10:42;7.37;;;6.50;;
2624;SDS011;1322;53.256;10.386;2023-05-14T06:13:08;9.63;;;6.30;;
2624;SDS011;1322;53.256;10.386;2023-05-14T06:15:35;7.07;;;6.37;;
2624;SDS011;1322;53.256;10.386;2023-05-14T06:18:01;10.20;;;6.87;;
2624;SDS011;1322;53.256;10.386;2023-05-14T06:20:27;9.00;;;6.13;;
2624;SDS011;1322;53.256;10.386;2023-05-14T06:22:53;7.03;;;6.33;;
2624;SDS011;1322;53.256;10.386;2023-05-14T06:25:19;8.40;;;5.60;;
2624;SDS011;1322;53.256;10.386;2023-05-14T06:27:45;8.00;;;6.27;;
2624;SDS011;1322;53.256;10.386;2023-05-14T06:30:11;6.27;;;5.67;;
2624;SDS011;1322;53.256;10.386;2023-05-14T06:32:37;9.10;;;5.80;;
2624;SDS011;1322;53.256;10.386;2023-05-14T06:35:03;7.60;;;6.47;;
2624;SDS011;1322;53.256;10.386;2023-05-14T06:37:30;6.17;;;5.67;;
2624;SDS011;1322;53.256;10.386;2023-05-14T06:39:56;7.90;;;5.57;;
2624;SDS011;1322;53.256;10.386;2023-05-14T06:42:22;7.80;;;6.97;;
2624;SDS011;1322;53.256;10.386;2023-05-14T06:44:48;7.07;;;6.20;;
2624;SDS011;1322;53.256;10.386;2023-05-14T06:47:14;7.33;;;6.40;;
2624;SDS011;1322;53.256;10.386;2023-05-14T06:49:40;6.93;;;5.53;;
2624;SDS011;1322;53.256;10.386;2023-05-14T06:52:06;6.63;;;5.87;;
2624;SDS011;1322;53.256;10.386;2023-05-14T06:54:32;6.20;;;5.60;;
2624;SDS011;1322;53.256;10.386;2023-05-14T06:56:58;6.10;;;5.60;;
2624;SDS011;1322;53.256;10.386;2023-05-14T06:59:24;14.77;;;9.37;;
2624;SDS011;1322;53.256;10.386;2023-05-14T07:01:50;6.77;;;5.93;;
2624;SDS011;1322;53.256;10.386;2023-05-14T07:04:16;7.47;;;6.40;;
2624;SDS011;1322;53.256;10.386;2023-05-14T07:06:42;6.57;;;5.77;;
2624;SDS011;1322;53.256;10.386;2023-05-14T07:09:08;7.10;;;6.40;;
2624;SDS011;1322;53.256;10.386;2023-05-14T07:11:34;7.10;;;6.40;;
2624;SDS011;1322;53.256;10.386;2023-05-14T07:14:00;6.40;;;5.80;;
2624;SDS011;1322;53.256;10.386;2023-05-14T07:16:26;5.80;;;5.20;;
2624;SDS011;1322;53.256;10.386;2023-05-14T07:18:52;5.30;;;4.80;;
2624;SDS011;1322;53.256;10.386;2023-05-14T07:21:18;4.53;;;4.10;;
2624;SDS011;1322;53.256;10.386;2023-05-14T07:23:44;5.70;;;5.20;;
2624;SDS011;1322;53.256;10.386;2023-05-14T07:26:10;6.60;;;4.53;;
2624;SDS011;1322;53.256;10.386;2023-05-14T07:28:36;5.40;;;4.60;;
2624;SDS011;1322;53.256;10.386;2023-05-14T07:31:02;6.00;;;4.67;;
2624;SDS011;1322;53.256;10.386;2023-05-14T07:33:33;4.53;;;4.13;;
2624;SDS011;1322;53.256;10.386;2023-05-14T07:36:01;6.90;;;3.87;;
2624;SDS011;1322;53.256;10.386;2023-05-14T07:38:27;9.67;;;4.23;;
2624;SDS011;1322;53.256;10.386;2023-05-14T07:40:53;4.80;;;3.87;;
2624;SDS011;1322;53.256;10.386;2023-05-14T07:43:20;3.87;;;3.47;;
2624;SDS011;1322;53.256;10.386;2023-05-14T07:45:46;8.23;;;3.70;;
2624;SDS011;1322;53.256;10.386;2023-05-14T07:48:12;4.87;;;3.80;;
2624;SDS011;1322;53.256;10.386;2023-05-14T07:50:38;4.20;;;3.30;;
2624;SDS011;1322;53.256;10.386;2023-05-14T07:53:04;4.17;;;3.77;;
2624;SDS011;1322;53.256;10.386;2023-05-14T07:55:30;3.60;;;3.30;;
2624;SDS011;1322;53.256;10.386;2023-05-14T07:57:56;5.47;;;3.80;;
2624;SDS011;1322;53.256;10.386;2023-05-14T08:00:22;3.50;;;3.20;;
2624;SDS011;1322;53.256;10.386;2023-05-14T08:02:48;3.73;;;3.40;;
2624;SDS011;1322;53.256;10.386;2023-05-14T08:05:14;5.80;;;3.90;;
2624;SDS011;1322;53.256;10.386;2023-05-14T08:07:40;6.07;;;4.60;;
2624;SDS011;1322;53.256;10.386;2023-05-14T08:10:07;5.00;;;3.80;;
2624;SDS011;1322;53.256;10.386;2023-05-14T08:12:33;4.03;;;3.50;;
2624;SDS011;1322;53.256;10.386;2023-05-14T08:14:59;5.33;;;4.80;;
2624;SDS011;1322;53.256;10.386;2023-05-14T08:17:25;4.00;;;3.60;;
2624;SDS011;1322;53.256;10.386;2023-05-14T08:19:51;4.13;;;3.70;;
2624;SDS011;1322;53.256;10.386;2023-05-14T08:22:18;4.07;;;3.67;;
2624;SDS011;1322;53.256;10.386;2023-05-14T08:24:44;5.20;;;4.40;;
2624;SDS011;1322;53.256;10.386;2023-05-14T08:27:10;5.73;;;4.10;;
2624;SDS011;1322;53.256;10.386;2023-05-14T08:29:36;5.30;;;4.33;;
2624;SDS011;1322;53.256;10.386;2023-05-14T08:34:50;5.07;;;4.57;;
2624;SDS011;1322;53.256;10.386;2023-05-14T08:37:16;5.27;;;4.10;;
2624;SDS011;1322;53.256;10.386;2023-05-14T08:39:42;4.33;;;3.93;;
2624;SDS011;1322;53.256;10.386;2023-05-14T08:42:08;7.80;;;3.97;;
2624;SDS011;1322;53.256;10.386;2023-05-14T08:44:52;5.00;;;4.60;;
2624;SDS011;1322;53.256;10.386;2023-05-14T08:47:24;4.40;;;4.00;;
2624;SDS011;1322;53.256;10.386;2023-05-14T08:50:03;4.60;;;3.80;;
2624;SDS011;1322;53.256;10.386;2023-05-14T08:52:30;10.13;;;4.83;;
2624;SDS011;1322;53.256;10.386;2023-05-14T08:55:00;5.90;;;4.07;;
2624;SDS011;1322;53.256;10.386;2023-05-14T08:57:29;5.43;;;4.37;;
2624;SDS011;1322;53.256;10.386;2023-05-14T08:59:56;4.20;;;3.70;;
2624;SDS011;1322;53.256;10.386;2023-05-14T09:02:23;4.07;;;3.67;;
2624;SDS011;1322;53.256;10.386;2023-05-14T09:04:57;6.47;;;4.10;;
2624;SDS011;1322;53.256;10.386;2023-05-14T09:07:23;4.67;;;4.17;;
2624;SDS011;1322;53.256;10.386;2023-05-14T09:09:50;6.03;;;4.20;;
2624;SDS011;1322;53.256;10.386;2023-05-14T09:12:16;5.33;;;4.10;;
2624;SDS011;1322;53.256;10.386;2023-05-14T09:14:43;4.67;;;3.67;;
2624;SDS011;1322;53.256;10.386;2023-05-14T09:17:09;8.03;;;4.20;;
2624;SDS011;1322;53.256;10.386;2023-05-14T09:19:38;5.17;;;3.83;;
2624;SDS011;1322;53.256;10.386;2023-05-14T09:22:08;4.33;;;3.57;;
2624;SDS011;1322;53.256;10.386;2023-05-14T09:24:38;4.77;;;3.50;;
2624;SDS011;1322;53.256;10.386;2023-05-14T09:27:04;4.57;;;3.37;;
2624;SDS011;1322;53.256;10.386;2023-05-14T09:29:30;4.37;;;3.97;;
2624;SDS011;1322;53.256;10.386;2023-05-14T09:31:57;5.60;;;3.83;;
2624;SDS011;1322;53.256;10.386;2023-05-14T09:34:25;5.23;;;3.90;;
2624;SDS011;1322;53.256;10.386;2023-05-14T09:37:01;5.10;;;3.60;;
2624;SDS011;1322;53.256;10.386;2023-05-14T09:39:40;4.63;;;3.90;;
2624;SDS011;1322;53.256;10.386;2023-05-14T09:42:06;3.47;;;3.17;;
2624;SDS011;1322;53.256;10.386;2023-05-14T09:44:32;8.77;;;4.40;;
2624;SDS011;1322;53.256;10.386;2023-05-14T09:47:00;8.57;;;4.33;;
2624;SDS011;1322;53.256;10.386;2023-05-14T09:49:26;4.03;;;3.63;;
2624;SDS011;1322;53.256;10.386;2023-05-14T09:51:52;5.87;;;3.23;;
2624;SDS011;1322;53.256;10.386;2023-05-14T09:54:18;3.50;;;3.17;;
2624;SDS011;1322;53.256;10.386;2023-05-14T09:56:44;6.13;;;3.40;;
2624;SDS011;1322;53.256;10.386;2023-05-14T09:59:09;4.97;;;3.10;;
2624;SDS011;1322;53.256;10.386;2023-05-14T10:01:35;3.63;;;3.20;;
2624;SDS011;1322;53.256;10.386;2023-05-14T10:04:05;5.90;;;4.10;;
2624;SDS011;1322;53.256;10.386;2023-05-14T10:06:32;4.67;;;3.30;;
2624;SDS011;1322;53.256;10.386;2023-05-14T10:09:03;11.23;;;3.37;;
2624;SDS011;1322;53.256;10.386;2023-05-14T10:11:36;4.57;;;4.13;;
2624;SDS011;1322;53.256;10.386;2023-05-14T10:16:36;4.63;;;3.30;;
2624;SDS011;1322;53.256;10.386;2023-05-14T10:19:08;3.20;;;2.83;;
2624;SDS011;1322;53.256;10.386;2023-05-14T10:21:35;3.83;;;3.43;;
2624;SDS011;1322;53.256;10.386;2023-05-14T10:24:02;5.00;;;4.00;;
2624;SDS011;1322;53.256;10.386;2023-05-14T10:26:30;5.20;;;3.80;;
2624;SDS011;1322;53.256;10.386;2023-05-14T10:29:03;7.07;;;4.20;;
2624;SDS011;1322;53.256;10.386;2023-05-14T10:37:09;4.17;;;3.77;;
2624;SDS011;1322;53.256;10.386;2023-05-14T10:39:44;4.30;;;3.50;;
2624;SDS011;1322;53.256;10.386;2023-05-14T10:42:40;4.27;;;3.87;;
2624;SDS011;1322;53.256;10.386;2023-05-14T10:45:11;6.97;;;3.93;;
2624;SDS011;1322;53.256;10.386;2023-05-14T10:47:39;6.37;;;3.90;;
2624;SDS011;1322;53.256;10.386;2023-05-14T10:50:07;4.83;;;3.90;;
2624;SDS011;1322;53.256;10.386;2023-05-14T10:52:44;4.43;;;4.03;;
2624;SDS011;1322;53.256;10.386;2023-05-14T10:55:13;8.20;;;4.37;;
2624;SDS011;1322;53.256;10.386;2023-05-14T10:57:43;4.87;;;4.07;;
2624;SDS011;1322;53.256;10.386;2023-05-14T11:00:10;5.77;;;5.10;;
2624;SDS011;1322;53.256;10.386;2023-05-14T11:02:41;4.43;;;3.80;;
2624;SDS011;1322;53.256;10.386;2023-05-14T11:05:15;7.50;;;3.70;;
2624;SDS011;1322;53.256;10.386;2023-05-14T11:10:08;5.73;;;3.90;;
2624;SDS011;1322;53.256;10.386;2023-05-14T11:12:36;4.93;;;4.20;;
2624;SDS011;1322;53.256;10.386;2023-05-14T11:15:04;4.90;;;4.27;;
2624;SDS011;1322;53.256;10.386;2023-05-14T11:17:34;4.80;;;3.90;;
2624;SDS011;1322;53.256;10.386;2023-05-14T11:20:01;5.10;;;4.70;;
2624;SDS011;1322;53.256;10.386;2023-05-14T11:22:29;5.20;;;4.13;;
2624;SDS011;1322;53.256;10.386;2023-05-14T11:24:55;4.10;;;3.70;;
2624;SDS011;1322;53.256;10.386;2023-05-14T11:27:21;4.43;;;4.03;;
2624;SDS011;1322;53.256;10.386;2023-05-14T11:29:48;4.53;;;3.63;;
2624;SDS011;1322;53.256;10.386;2023-05-14T11:32:14;5.40;;;3.67;;
2624;SDS011;1322;53.256;10.386;2023-05-14T11:34:41;5.33;;;4.27;;
2624;SDS011;1322;53.256;10.386;2023-05-14T11:37:08;5.93;;;4.17;;
2624;SDS011;1322;53.256;10.386;2023-05-14T11:39:35;8.50;;;5.90;;
2624;SDS011;1322;53.256;10.386;2023-05-14T11:42:06;8.83;;;3.73;;
2624;SDS011;1322;53.256;10.386;2023-05-14T11:44:36;4.47;;;3.60;;
2624;SDS011;1322;53.256;10.386;2023-05-14T11:47:02;5.13;;;4.00;;
2624;SDS011;1322;53.256;10.386;2023-05-14T11:49:29;8.43;;;4.17;;
2624;SDS011;1322;53.256;10.386;2023-05-14T11:52:01;5.03;;;4.00;;
2624;SDS011;1322;53.256;10.386;2023-05-14T11:54:29;5.40;;;3.97;;
2624;SDS011;1322;53.256;10.386;2023-05-14T11:56:56;4.60;;;4.00;;
2624;SDS011;1322;53.256;10.386;2023-05-14T11:59:26;4.27;;;3.87;;
2624;SDS011;1322;53.256;10.386;2023-05-14T12:01:56;5.40;;;3.63;;
2624;SDS011;1322;53.256;10.386;2023-05-14T12:04:22;8.23;;;4.03;;
2624;SDS011;1322;53.256;10.386;2023-05-14T12:06:50;5.43;;;3.87;;
2624;SDS011;1322;53.256;10.386;2023-05-14T12:09:16;9.30;;;4.07;;
2624;SDS011;1322;53.256;10.386;2023-05-14T12:11:43;4.63;;;3.83;;
2624;SDS011;1322;53.256;10.386;2023-05-14T12:14:14;5.90;;;3.80;;
2624;SDS011;1322;53.256;10.386;2023-05-14T12:16:41;7.33;;;4.20;;
2624;SDS011;1322;53.256;10.386;2023-05-14T12:19:07;5.33;;;4.00;;
2624;SDS011;1322;53.256;10.386;2023-05-14T12:21:34;4.47;;;3.77;;
2624;SDS011;1322;53.256;10.386;2023-05-14T12:24:00;5.83;;;4.30;;
2624;SDS011;1322;53.256;10.386;2023-05-14T12:26:26;6.80;;;4.40;;
2624;SDS011;1322;53.256;10.386;2023-05-14T12:28:56;4.77;;;3.50;;
2624;SDS011;1322;53.256;10.386;2023-05-14T12:31:29;11.10;;;10.00;;
2624;SDS011;1322;53.256;10.386;2023-05-14T12:33:55;8.00;;;4.10;;
2624;SDS011;1322;53.256;10.386;2023-05-14T12:36:21;4.70;;;3.97;;
2624;SDS011;1322;53.256;10.386;2023-05-14T12:38:58;5.60;;;3.70;;
2624;SDS011;1322;53.256;10.386;2023-05-14T12:41:25;4.73;;;4.20;;
2624;SDS011;1322;53.256;10.386;2023-05-14T12:43:51;9.17;;;3.93;;
2624;SDS011;1322;53.256;10.386;2023-05-14T12:46:17;3.87;;;3.43;;
2624;SDS011;1322;53.256;10.386;2023-05-14T12:48:43;5.97;;;3.73;;
2624;SDS011;1322;53.256;10.386;2023-05-14T12:51:10;4.40;;;3.73;;
2624;SDS011;1322;53.256;10.386;2023-05-14T12:53:36;6.60;;;3.63;;
2624;SDS011;1322;53.256;10.386;2023-05-14T12:56:02;4.80;;;4.40;;
2624;SDS011;1322;53.256;10.386;2023-05-14T12:58:28;5.60;;;4.60;;
2624;SDS011;1322;53.256;10.386;2023-05-14T13:00:54;4.80;;;3.87;;
2624;SDS011;1322;53.256;10.386;2023-05-14T13:03:20;6.00;;;3.43;;
2624;SDS011;1322;53.256;10.386;2023-05-14T13:05:46;4.17;;;3.67;;
2624;SDS011;1322;53.256;10.386;2023-05-14T13:08:12;5.03;;;4.00;;
2624;SDS011;1322;53.256;10.386;2023-05-14T13:10:42;5.23;;;4.73;;
2624;SDS011;1322;53.256;10.386;2023-05-14T13:13:08;5.70;;;3.87;;
2624;SDS011;1322;53.256;10.386;2023-05-14T13:15:35;5.97;;;4.00;;
2624;SDS011;1322;53.256;10.386;2023-05-14T13:18:04;6.93;;;3.77;;
2624;SDS011;1322;53.256;10.386;2023-05-14T13:20:30;6.07;;;5.43;;
2624;SDS011;1322;53.256;10.386;2023-05-14T13:22:56;12.10;;;8.60;;
2624;SDS011;1322;53.256;10.386;2023-05-14T13:25:22;4.43;;;4.00;;
2624;SDS011;1322;53.256;10.386;2023-05-14T13:27:48;4.37;;;3.97;;
2624;SDS011;1322;53.256;10.386;2023-05-14T13:30:18;6.20;;;4.03;;
2624;SDS011;1322;53.256;10.386;2023-05-14T13:32:44;3.47;;;3.17;;
2624;SDS011;1322;53.256;10.386;2023-05-14T13:35:10;4.50;;;3.70;;
2624;SDS011;1322;53.256;10.386;2023-05-14T13:37:36;5.13;;;4.43;;
2624;SDS011;1322;53.256;10.386;2023-05-14T13:40:03;6.37;;;3.77;;
2624;SDS011;1322;53.256;10.386;2023-05-14T13:42:31;5.60;;;3.73;;
2624;SDS011;1322;53.256;10.386;2023-05-14T13:45:00;9.50;;;4.60;;
2624;SDS011;1322;53.256;10.386;2023-05-14T13:47:26;4.70;;;4.20;;
2624;SDS011;1322;53.256;10.386;2023-05-14T13:49:55;6.63;;;4.07;;
2624;SDS011;1322;53.256;10.386;2023-05-14T13:52:20;8.27;;;4.73;;
2624;SDS011;1322;53.256;10.386;2023-05-14T13:54:46;5.83;;;4.60;;
2624;SDS011;1322;53.256;10.386;2023-05-14T13:57:12;7.17;;;4.87;;
2624;SDS011;1322;53.256;10.386;2023-05-14T13:59:38;5.83;;;3.93;;
2624;SDS011;1322;53.256;10.386;2023-05-14T14:02:04;6.00;;;4.00;;
2624;SDS011;1322;53.256;10.386;2023-05-14T14:04:30;5.50;;;4.63;;
2624;SDS011;1322;53.256;10.386;2023-05-14T14:06:55;4.77;;;4.23;;
2624;SDS011;1322;53.256;10.386;2023-05-14T14:09:22;6.03;;;4.57;;
2624;SDS011;1322;53.256;10.386;2023-05-14T14:11:47;6.10;;;3.70;;
2624;SDS011;1322;53.256;10.386;2023-05-14T14:14:13;6.73;;;4.00;;
2624;SDS011;1322;53.256;10.386;2023-05-14T14:16:39;5.37;;;4.30;;
2624;SDS011;1322;53.256;10.386;2023-05-14T14:19:05;5.70;;;4.10;;
2624;SDS011;1322;53.256;10.386;2023-05-14T14:21:31;9.90;;;4.60;;
2624;SDS011;1322;53.256;10.386;2023-05-14T14:23:57;5.13;;;4.43;;
2624;SDS011;1322;53.256;10.386;2023-05-14T14:26:23;7.37;;;4.33;;
2624;SDS011;1322;53.256;10.386;2023-05-14T14:28:48;6.00;;;3.87;;
2624;SDS011;1322;53.256;10.386;2023-05-14T14:31:14;5.70;;;4.00;;
2624;SDS011;1322;53.256;10.386;2023-05-14T14:33:40;5.80;;;4.40;;
2624;SDS011;1322;53.256;10.386;2023-05-14T14:36:07;5.50;;;4.23;;
2624;SDS011;1322;53.256;10.386;2023-05-14T14:38:33;6.97;;;4.40;;
2624;SDS011;1322;53.256;10.386;2023-05-14T14:40:59;8.50;;;4.50;;
2624;SDS011;1322;53.256;10.386;2023-05-14T14:43:27;4.20;;;3.70;;
2624;SDS011;1322;53.256;10.386;2023-05-14T14:45:53;5.47;;;4.20;;
2624;SDS011;1322;53.256;10.386;2023-05-14T14:50:49;11.10;;;4.40;;
2624;SDS011;1322;53.256;10.386;2023-05-14T14:53:16;8.27;;;4.77;;
2624;SDS011;1322;53.256;10.386;2023-05-14T14:55:46;8.53;;;4.37;;
2624;SDS011;1322;53.256;10.386;2023-05-14T14:58:16;6.90;;;4.30;;
2624;SDS011;1322;53.256;10.386;2023-05-14T15:00:43;5.80;;;3.60;;
2624;SDS011;1322;53.256;10.386;2023-05-14T15:03:09;7.33;;;4.40;;
2624;SDS011;1322;53.256;10.386;2023-05-14T15:05:35;5.90;;;4.57;;
2624;SDS011;1322;53.256;10.386;2023-05-14T15:08:01;7.73;;;4.50;;
2624;SDS011;1322;53.256;10.386;2023-05-14T15:10:27;6.50;;;3.87;;
2624;SDS011;1322;53.256;10.386;2023-05-14T15:12:55;4.20;;;3.80;;
2624;SDS011;1322;53.256;10.386;2023-05-14T15:15:22;5.20;;;4.77;;
2624;SDS011;1322;53.256;10.386;2023-05-14T15:17:48;4.80;;;3.90;;
2624;SDS011;1322;53.256;10.386;2023-05-14T15:20:13;5.60;;;4.23;;